Time;durP1;ratioP1;P1;durP2;ratioP2;P2;SDS_P1;SDS_P2;PMS_P1;PMS_P2;Temp;Humidity;BMP_temperature;BMP_pressure;BME280_temperature;BME280_humidity;BME280_pressure;Samples;Min_cycle;Max_cycle;Signal;HPM_P1;HPM_P2
2023/02/24 09:05:19;;;;;;;13.87;11.73;;;;;;;14.63;100.00;98471.81;6225371;22;20521;-83
2023/02/24 09:07:53;;;;;;;13.77;11.10;;;;;;;14.82;100.00;98459.38;6215922;23;20214;-86
2023/02/24 09:10:20;;;;;;;12.53;10.40;;;;;;;14.97;98.65;98465.53;6179665;23;20211;-87
2023/02/24 09:12:48;;;;;;;13.23;10.53;;;;;;;15.24;97.47;98459.72;6194314;23;20210;-84
2023/02/24 09:15:14;;;;;;;15.20;11.67;;;;;;;15.50;97.01;98457.69;6184758;23;20328;-87
2023/02/24 09:23:18;;;;;;;12.27;10.97;;;;;;;15.93;91.49;98450.66;6183440;23;20265;-86
2023/02/24 09:25:49;;;;;;;12.93;10.83;;;;;;;16.11;89.90;98451.84;6157552;23;20697;-85
2023/02/24 09:28:18;;;;;;;11.03;9.93;;;;;;;16.18;88.21;98433.44;6183083;23;20758;-86
2023/02/24 09:30:54;;;;;;;11.77;9.67;;;;;;;16.28;87.94;98436.03;6157881;23;20202;-86
2023/02/24 09:33:25;;;;;;;11.20;9.83;;;;;;;16.31;85.92;98432.75;6183603;23;20209;-85
2023/02/24 09:36:01;;;;;;;11.07;9.93;;;;;;;16.38;85.33;98429.72;6183441;23;20214;-86
2023/02/24 09:44:51;;;;;;;11.17;9.97;;;;;;;16.68;83.83;98416.69;6159896;23;20210;-86
2023/02/24 09:47:55;;;;;;;12.07;10.03;;;;;;;16.91;83.23;98414.25;6157435;23;20217;-85
2023/02/24 09:50:22;;;;;;;11.57;10.37;;;;;;;17.03;80.74;98414.66;6180615;23;20206;-86
2023/02/24 09:53:16;;;;;;;10.37;9.20;;;;;;;17.19;80.21;98410.63;6182834;23;20213;-85
2023/02/24 09:56:05;;;;;;;10.63;9.53;;;;;;;17.32;78.35;98407.19;6158417;23;20205;-84
2023/02/24 09:58:51;;;;;;;10.93;9.63;;;;;;;17.48;77.04;98402.38;6134323;23;20209;-87
2023/02/24 10:01:21;;;;;;;11.20;9.40;;;;;;;17.45;77.20;98402.97;6182525;23;20551;-85
2023/02/24 10:04:04;;;;;;;11.00;9.67;;;;;;;17.51;75.32;98394.47;6156360;23;20603;-85
2023/02/24 10:06:47;;;;;;;12.23;10.00;;;;;;;17.65;75.19;98382.91;6160536;23;20241;-87
2023/02/24 10:09:32;;;;;;;12.10;10.90;;;;;;;17.75;76.08;98388.16;6182605;23;20289;-85
2023/02/24 10:12:27;;;;;;;13.03;10.80;;;;;;;17.78;74.43;98380.25;6157840;23;20210;-85
2023/02/24 10:17:57;;;;;;;11.67;10.47;;;;;;;17.83;74.18;98369.31;6128932;23;20210;-86
2023/02/24 10:20:44;;;;;;;10.83;8.90;;;;;;;17.70;72.95;98377.41;6155432;23;20213;-85
2023/02/24 10:23:28;;;;;;;10.03;7.40;;;;;;;17.56;69.14;98359.19;6160851;23;20206;-85
2023/02/24 10:26:20;;;;;;;9.63;8.17;;;;;;;17.65;68.62;98361.25;6158813;23;20213;-87
2023/02/24 10:28:58;;;;;;;8.43;6.97;;;;;;;17.71;68.23;98354.66;6160722;23;20210;-86
2023/02/24 10:31:46;;;;;;;8.67;7.40;;;;;;;17.64;67.67;98346.91;6157973;23;20214;-88
2023/02/24 10:34:25;;;;;;;7.43;6.73;;;;;;;17.54;66.41;98338.94;6182312;23;20217;-87
2023/02/24 10:36:51;;;;;;;6.80;5.97;;;;;;;17.70;66.84;98339.50;6136700;23;20280;-91
2023/02/24 10:39:24;;;;;;;5.57;4.67;;;;;;;17.69;63.84;98335.97;6159918;23;20229;-89
2023/02/24 10:42:16;;;;;;;6.43;5.60;;;;;;;17.65;63.99;98331.44;6160103;23;20210;-91
2023/02/24 10:44:52;;;;;;;7.77;6.50;;;;;;;17.65;64.50;98321.44;6159435;23;20202;-91
2023/02/24 10:47:32;;;;;;;6.57;5.77;;;;;;;17.98;63.17;98323.00;6163513;23;20241;-93
2023/02/24 10:50:00;;;;;;;6.53;5.80;;;;;;;18.06;61.49;98318.00;6160449;23;20210;-94
2023/02/24 10:52:36;;;;;;;8.93;6.53;;;;;;;18.18;62.84;98316.41;6159662;23;20206;-92
2023/02/24 10:55:26;;;;;;;9.03;7.57;;;;;;;18.34;62.87;98309.56;6159791;23;20213;-93
2023/02/24 10:58:04;;;;;;;10.23;7.50;;;;;;;18.41;63.45;98301.84;6139216;23;20544;-93
2023/02/24 11:03:59;;;;;;;8.60;7.30;;;;;;;18.76;62.67;98289.44;6066065;23;20217;-92
2023/02/24 11:06:40;;;;;;;9.30;7.70;;;;;;;18.85;62.37;98284.09;6150980;23;20202;-93
2023/02/24 11:17:43;;;;;;;9.20;8.20;;;;;;;19.76;60.68;98260.19;6160036;23;20221;-93
2023/02/24 11:20:25;;;;;;;8.43;7.03;;;;;;;20.10;58.76;98256.81;6134257;23;20210;-93
2023/02/24 11:23:14;;;;;;;7.97;6.90;;;;;;;20.29;57.41;98245.69;6185025;23;20212;-93
2023/02/24 11:25:45;;;;;;;9.33;7.90;;;;;;;20.31;56.57;98240.75;6160153;23;20267;-93
2023/02/24 11:28:32;;;;;;;9.03;8.13;;;;;;;20.41;57.08;98248.63;6158885;23;20207;-93
2023/02/24 11:31:27;;;;;;;9.53;8.63;;;;;;;20.51;57.24;98238.25;6158486;23;20211;-91
2023/02/24 11:34:03;;;;;;;7.90;7.10;;;;;;;20.53;56.58;98227.81;6185712;23;20209;-92
2023/02/24 11:37:05;;;;;;;7.80;7.07;;;;;;;20.59;56.78;98223.84;6183591;23;20207;-92
2023/02/24 11:39:46;;;;;;;10.97;9.87;;;;;;;20.81;57.26;98209.28;6184119;23;20738;-93
2023/02/24 11:42:22;;;;;;;11.43;10.13;;;;;;;20.65;57.03;98208.97;6109949;23;20217;-91
2023/02/24 11:44:58;;;;;;;11.47;9.97;;;;;;;20.64;57.28;98193.75;6134396;23;20216;-93
2023/02/24 11:47:35;;;;;;;12.80;9.67;;;;;;;20.60;57.42;98192.81;6134466;23;20216;-90
2023/02/24 11:50:13;;;;;;;10.03;9.03;;;;;;;20.45;57.39;98193.25;6158330;23;20222;-92
2023/02/24 11:52:42;;;;;;;10.00;9.00;;;;;;;20.46;56.40;98175.03;6133744;23;20212;-92
2023/02/24 11:55:28;;;;;;;9.63;8.40;;;;;;;20.44;54.77;98175.31;6159302;23;20236;-92
2023/02/24 11:57:58;;;;;;;10.60;9.00;;;;;;;20.49;54.33;98166.22;6158677;23;20213;-89
2023/02/24 12:00:27;;;;;;;9.27;8.13;;;;;;;20.46;55.18;98166.88;6134297;23;20211;-91
2023/02/24 12:03:08;;;;;;;9.83;8.60;;;;;;;20.53;54.75;98159.81;6159313;23;20252;-91
2023/02/24 12:05:56;;;;;;;9.80;8.57;;;;;;;20.59;54.86;98158.53;6160046;23;20230;-92
2023/02/24 12:08:28;;;;;;;9.47;8.47;;;;;;;20.32;54.59;98156.13;6158830;23;20198;-92
2023/02/24 12:11:10;;;;;;;10.47;9.20;;;;;;;20.41;54.63;98145.25;6134679;23;20218;-89
2023/02/24 12:13:58;;;;;;;9.50;8.50;;;;;;;20.32;55.12;98134.38;6134734;23;20270;-93
2023/02/24 12:16:32;;;;;;;9.97;8.87;;;;;;;20.45;54.91;98129.88;6183257;23;20679;-90
2023/02/24 12:19:18;;;;;;;9.67;8.20;;;;;;;20.44;55.04;98125.56;6159785;23;20220;-92
2023/02/24 12:22:11;;;;;;;10.27;9.27;;;;;;;20.29;55.77;98126.84;6134400;23;20221;-93
2023/02/24 12:24:40;;;;;;;10.27;9.17;;;;;;;20.16;56.35;98131.28;6109668;23;20598;-92
2023/02/24 12:27:11;;;;;;;10.80;9.73;;;;;;;20.15;56.67;98134.34;6160332;23;20738;-91
2023/02/24 12:30:21;;;;;;;11.37;10.27;;;;;;;19.91;57.49;98125.81;6183817;23;20209;-93
2023/02/24 12:33:04;;;;;;;11.00;9.90;;;;;;;19.92;57.91;98111.91;6183159;23;20201;-91
2023/02/24 12:35:40;;;;;;;10.50;9.50;;;;;;;19.92;57.43;98100.22;6135345;23;20214;-92
2023/02/24 12:38:25;;;;;;;10.50;9.50;;;;;;;20.06;56.43;98106.34;6195644;23;20242;-89
2023/02/24 12:41:02;;;;;;;11.17;9.83;;;;;;;20.19;57.27;98097.22;6205387;23;20232;-90
2023/02/24 12:43:41;;;;;;;10.77;9.77;;;;;;;20.15;56.96;98091.63;6135218;23;20207;-91
2023/02/24 12:46:35;;;;;;;12.47;10.77;;;;;;;20.21;56.23;98087.63;6152278;23;20218;-87
2023/02/24 12:49:19;;;;;;;11.67;9.77;;;;;;;20.15;56.67;98077.25;6183087;23;20212;-92
2023/02/24 12:52:15;;;;;;;11.43;9.63;;;;;;;20.09;57.23;98083.94;6159336;23;20218;-90
2023/02/24 12:54:42;;;;;;;10.97;9.87;;;;;;;20.00;57.63;98074.97;6135016;23;20201;-92
2023/02/24 12:57:21;;;;;;;10.73;9.67;;;;;;;19.89;57.54;98073.66;6161156;23;20217;-92
2023/02/24 12:59:48;;;;;;;10.40;9.33;;;;;;;19.83;57.22;98067.59;6160903;23;20217;-92
2023/02/24 13:02:24;;;;;;;11.50;9.93;;;;;;;19.57;56.99;98067.53;6186542;23;20247;-93
2023/02/24 13:05:02;;;;;;;11.90;10.70;;;;;;;19.36;58.33;98064.56;6183911;23;20660;-93
2023/02/24 13:07:38;;;;;;;12.07;10.83;;;;;;;19.23;58.50;98064.66;6158702;23;20213;-92
2023/02/24 13:10:13;;;;;;;11.53;10.43;;;;;;;19.03;58.58;98057.09;6182619;23;20269;-93
2023/02/24 13:13:00;;;;;;;12.73;11.37;;;;;;;19.01;59.21;98040.31;6183946;23;20259;-93
2023/02/24 13:15:30;;;;;;;13.57;12.27;;;;;;;18.76;60.05;98052.63;6139880;23;20208;-92
2023/02/24 13:17:58;;;;;;;14.00;11.77;;;;;;;18.87;60.41;98040.41;6160051;23;20221;-90
2023/02/24 13:20:36;;;;;;;14.00;12.47;;;;;;;18.76;60.30;98039.06;6158972;23;20203;-93
2023/02/24 13:23:18;;;;;;;17.17;15.37;;;;;;;18.74;60.84;98033.97;6160927;23;20208;-93
2023/02/24 13:25:52;;;;;;;16.87;15.17;;;;;;;18.73;61.56;98024.22;6159996;23;20273;-93
2023/02/24 13:28:29;;;;;;;20.47;17.83;;;;;;;18.49;61.40;98026.41;6135382;23;20820;-93
2023/02/24 13:30:59;;;;;;;21.13;17.40;;;;;;;18.40;61.80;98028.28;6185788;23;20589;-92
2023/02/24 13:33:41;;;;;;;22.00;19.80;;;;;;;18.30;62.63;98031.22;6185326;23;20228;-92
2023/02/24 13:36:20;;;;;;;19.63;17.73;;;;;;;18.23;62.93;98020.84;6135771;23;20746;-93
2023/02/24 13:38:49;;;;;;;22.43;20.23;;;;;;;18.16;63.21;98027.78;6160843;23;20211;-93
2023/02/24 13:41:35;;;;;;;19.07;17.17;;;;;;;18.11;63.68;98017.84;6160512;23;20286;-90
2023/02/24 13:44:26;;;;;;;18.70;16.80;;;;;;;18.08;63.91;98028.53;6159919;23;20217;-91
2023/02/24 13:47:11;;;;;;;18.00;16.10;;;;;;;17.99;63.95;98021.13;6159980;23;20206;-91
2023/02/24 13:49:59;;;;;;;19.70;17.70;;;;;;;17.99;63.96;98012.19;6185863;23;20293;-91
2023/02/24 13:52:41;;;;;;;19.10;17.20;;;;;;;17.87;63.92;98022.78;6185965;23;20206;-91
2023/02/24 13:55:45;;;;;;;19.40;17.50;;;;;;;17.81;64.32;98019.38;6185596;23;20213;-91
2023/02/24 13:58:25;;;;;;;17.60;15.80;;;;;;;17.71;64.73;98018.78;6159375;23;20264;-90
2023/02/24 14:01:00;;;;;;;18.07;16.37;;;;;;;17.67;65.40;98021.31;6185066;23;20206;-91
2023/02/24 14:03:28;;;;;;;19.40;17.30;;;;;;;17.64;65.37;98019.19;6184539;23;20260;-91
2023/02/24 14:05:57;;;;;;;19.40;17.40;;;;;;;17.48;65.84;98018.72;6160544;23;20210;-91
2023/02/24 14:08:37;;;;;;;18.73;16.83;;;;;;;17.43;66.79;98004.47;6135505;23;20609;-91
2023/02/24 14:11:06;;;;;;;17.77;15.90;;;;;;;17.41;67.34;98002.06;6135400;23;20206;-91
2023/02/24 14:13:35;;;;;;;19.43;17.33;;;;;;;17.18;68.07;97993.06;6184776;23;20285;-91
2023/02/24 14:16:08;;;;;;;18.77;16.73;;;;;;;17.27;68.93;97998.56;6183345;23;20210;-88
2023/02/24 14:18:38;;;;;;;19.50;17.50;;;;;;;17.25;69.42;97997.28;6185154;23;20241;-91
2023/02/24 14:21:05;;;;;;;19.93;16.93;;;;;;;17.18;69.94;98000.38;6185081;23;20230;-91
2023/02/24 14:23:33;;;;;;;20.13;18.00;;;;;;;17.21;70.24;97993.56;6185472;23;20225;-91
2023/02/24 14:26:14;;;;;;;19.97;17.97;;;;;;;17.21;70.41;97997.09;6158878;23;20210;-90
2023/02/24 14:28:41;;;;;;;22.57;18.97;;;;;;;17.18;70.04;97997.66;6184670;23;20215;-89
2023/02/24 14:31:14;;;;;;;19.90;17.90;;;;;;;17.04;70.83;97992.25;6159606;23;20212;-90
2023/02/24 14:33:43;;;;;;;20.17;18.17;;;;;;;17.08;71.49;97987.03;6159822;23;20293;-91
2023/02/24 14:36:17;;;;;;;20.93;18.83;;;;;;;16.95;71.88;97994.06;6158452;23;20206;-90
2023/02/24 14:38:44;;;;;;;20.67;18.57;;;;;;;16.89;72.57;97992.56;6185602;23;20225;-89
2023/02/24 14:41:29;;;;;;;23.30;20.07;;;;;;;16.80;71.39;97986.22;6185282;23;20246;-90
2023/02/24 14:43:55;;;;;;;20.13;18.00;;;;;;;16.50;72.12;97984.06;6184155;23;20230;-91
2023/02/24 14:46:22;;;;;;;21.17;18.90;;;;;;;16.10;73.79;97980.13;6183558;23;20218;-89
2023/02/24 14:48:54;;;;;;;22.27;18.80;;;;;;;15.59;76.28;97980.91;6184805;23;20217;-91
2023/02/24 14:51:30;;;;;;;22.63;18.93;;;;;;;15.34;77.59;97986.66;6159217;23;20213;-91
2023/02/24 14:54:00;;;;;;;24.33;18.37;;;;;;;15.50;77.79;97965.63;6159135;23;20283;-90
2023/02/24 14:56:30;;;;;;;21.90;18.90;;;;;;;15.56;77.39;97969.91;6159072;23;20266;-89
2023/02/24 14:59:00;;;;;;;19.90;17.27;;;;;;;15.54;77.64;97962.09;6159007;23;20210;-89
2023/02/24 15:01:35;;;;;;;20.97;18.37;;;;;;;15.47;78.44;97968.91;6184565;23;20543;-90
2023/02/24 15:04:29;;;;;;;19.90;17.80;;;;;;;15.44;78.84;97964.94;6182680;23;20248;-91
2023/02/24 15:06:56;;;;;;;22.33;18.03;;;;;;;15.41;79.48;97960.91;6158470;23;20217;-89
2023/02/24 15:09:28;;;;;;;19.50;17.47;;;;;;;15.51;80.45;97953.78;6185168;23;20212;-91
2023/02/24 15:11:55;;;;;;;20.37;18.33;;;;;;;15.51;82.21;97951.88;6182939;23;20210;-91
2023/02/24 15:14:31;;;;;;;21.67;19.37;;;;;;;15.44;83.12;97959.53;6158322;23;20260;-91
2023/02/24 15:17:07;;;;;;;21.53;18.97;;;;;;;15.38;83.13;97944.50;6184197;23;20237;-90
2023/02/24 15:19:42;;;;;;;21.40;19.10;;;;;;;15.39;82.29;97943.41;6159230;23;20206;-91
2023/02/24 15:22:20;;;;;;;20.43;18.37;;;;;;;15.40;81.24;97940.41;6158104;23;20210;-90
2023/02/24 15:24:47;;;;;;;23.90;18.53;;;;;;;15.23;82.16;97944.69;6184754;23;20218;-88
2023/02/24 15:27:13;;;;;;;20.57;18.37;;;;;;;14.98;82.78;97943.91;6158813;23;20202;-90
2023/02/24 15:29:41;;;;;;;20.30;17.77;;;;;;;14.86;83.30;97937.34;6184553;23;20237;-91
2023/02/24 15:32:20;;;;;;;22.30;18.60;;;;;;;14.87;84.98;97941.66;6182299;23;20407;-91
2023/02/24 15:34:47;;;;;;;20.43;18.20;;;;;;;14.90;85.60;97939.16;6182985;23;20220;-91
2023/02/24 15:37:26;;;;;;;20.23;18.23;;;;;;;14.91;85.24;97931.88;6184105;23;20198;-88
2023/02/24 15:40:02;;;;;;;20.40;18.30;;;;;;;14.83;84.60;97913.66;6183401;23;20209;-91
2023/02/24 15:42:34;;;;;;;22.87;19.87;;;;;;;15.03;83.55;97915.28;6157951;23;20206;-91
2023/02/24 15:45:06;;;;;;;20.73;18.53;;;;;;;14.85;84.81;97906.06;6184076;23;20210;-90
2023/02/24 15:47:42;;;;;;;21.83;19.60;;;;;;;14.77;87.29;97901.31;6158208;23;20229;-89
2023/02/24 15:50:10;;;;;;;21.67;19.37;;;;;;;14.91;88.57;97891.44;6157373;23;20210;-89
2023/02/24 15:52:37;;;;;;;21.33;18.90;;;;;;;14.95;88.96;97882.47;6184028;23;20212;-90
2023/02/24 15:55:04;;;;;;;25.13;19.30;;;;;;;14.94;89.61;97875.47;6182677;23;20690;-90
2023/02/24 15:57:32;;;;;;;21.23;17.67;;;;;;;14.98;89.93;97873.00;6183801;23;20217;-90
2023/02/24 15:59:58;;;;;;;19.87;17.73;;;;;;;15.12;86.22;97865.78;6158779;23;20252;-90
2023/02/24 16:02:26;;;;;;;20.13;17.73;;;;;;;15.07;85.68;97873.19;6184072;23;20596;-90
2023/02/24 16:04:53;;;;;;;19.93;17.93;;;;;;;15.04;85.49;97869.16;6196499;23;20529;-85
2023/02/24 16:07:23;;;;;;;21.90;18.80;;;;;;;14.95;85.74;97877.09;6197467;23;20206;-87
2023/02/24 16:09:51;;;;;;;22.67;18.60;;;;;;;14.85;86.12;97874.53;6166499;23;20210;-89
2023/02/24 16:12:33;;;;;;;20.27;18.27;;;;;;;14.69;87.50;97865.03;6175596;23;20214;-88
2023/02/24 16:15:02;;;;;;;20.57;18.40;;;;;;;14.65;88.13;97874.00;6208219;23;20193;-88
2023/02/24 16:17:33;;;;;;;21.70;19.40;;;;;;;14.51;89.28;97860.41;6186886;23;20229;-89
2023/02/24 16:20:01;;;;;;;20.87;18.73;;;;;;;14.40;90.45;97861.59;6182989;23;20218;-90
2023/02/24 16:22:28;;;;;;;20.57;18.43;;;;;;;14.22;92.05;97857.72;6183545;23;20202;-86
2023/02/24 16:24:55;;;;;;;21.13;18.83;;;;;;;14.11;93.16;97850.84;6182540;23;20686;-91
2023/02/24 16:27:22;;;;;;;26.37;20.10;;;;;;;14.03;94.24;97844.19;6157659;23;20718;-90
2023/02/24 16:29:49;;;;;;;23.40;19.97;;;;;;;13.90;94.70;97839.47;6183587;23;20218;-88
2023/02/24 16:32:16;;;;;;;22.23;19.93;;;;;;;13.78;95.08;97844.41;6133814;23;20373;-91
2023/02/24 16:34:43;;;;;;;23.20;20.77;;;;;;;13.63;95.61;97836.47;6134597;23;20206;-90
2023/02/24 16:37:18;;;;;;;22.50;19.93;;;;;;;13.46;98.05;97836.09;6184352;23;20649;-90
2023/02/24 16:39:45;;;;;;;22.20;19.73;;;;;;;13.35;99.72;97835.34;6158770;23;20713;-91
2023/02/24 16:42:12;;;;;;;22.10;19.80;;;;;;;13.22;100.00;97826.03;6183801;23;20269;-91
2023/02/24 16:44:39;;;;;;;22.47;20.13;;;;;;;13.07;100.00;97828.81;6158703;23;20643;-91
2023/02/24 16:47:07;;;;;;;20.50;18.30;;;;;;;12.96;100.00;97821.91;6157939;23;20212;-91
2023/02/24 16:49:33;;;;;;;22.43;18.90;;;;;;;12.87;100.00;97823.56;6159175;23;20669;-90
2023/02/24 16:52:00;;;;;;;22.67;20.17;;;;;;;12.77;100.00;97820.94;6184035;23;20681;-90
2023/02/24 16:54:28;;;;;;;21.77;19.47;;;;;;;12.70;100.00;97820.41;6159178;23;20206;-90
2023/02/24 16:56:55;;;;;;;21.47;19.17;;;;;;;12.64;100.00;97824.22;6137175;23;20248;-89
2023/02/24 16:59:24;;;;;;;23.37;20.67;;;;;;;12.61;100.00;97812.13;6137255;23;20213;-88
2023/02/24 17:01:54;;;;;;;22.87;20.43;;;;;;;12.51;100.00;97808.69;6139660;23;20598;-86
2023/02/24 22:55:56;;;;;;;2.60;1.10;;;;;;;11.03;100.00;97515.22;6225010;23;20212;-81
2023/02/24 22:58:36;;;;;;;3.37;1.20;;;;;;;10.98;100.00;97512.56;6213737;23;20228;-81
2023/02/24 23:01:13;;;;;;;2.13;1.07;;;;;;;11.01;100.00;97517.41;6191083;23;20220;-82
2023/02/24 23:04:13;;;;;;;2.03;0.90;;;;;;;11.00;100.00;97508.53;6223194;23;20201;-82
2023/02/24 23:06:40;;;;;;;2.87;1.30;;;;;;;11.08;100.00;97514.41;6201815;23;20217;-81
2023/02/24 23:15:09;;;;;;;3.97;1.00;;;;;;;11.07;100.00;97502.88;6207112;23;20209;-82
2023/02/24 23:17:36;;;;;;;3.97;1.30;;;;;;;11.04;100.00;97492.72;6211198;23;20213;-82
2023/02/24 23:20:11;;;;;;;2.37;1.37;;;;;;;10.99;100.00;97498.91;6210383;23;20225;-78
2023/02/24 23:22:40;;;;;;;2.43;1.23;;;;;;;11.14;100.00;97503.41;6212217;23;20199;-81
2023/02/24 23:25:09;;;;;;;2.83;1.30;;;;;;;11.16;100.00;97503.91;6211559;23;20198;-81
2023/02/24 23:27:38;;;;;;;4.70;1.50;;;;;;;11.06;100.00;97513.91;6158911;23;20226;-81
2023/02/24 23:30:12;;;;;;;3.33;1.10;;;;;;;11.02;100.00;97514.41;6181553;23;20210;-81
